Rasht Airport
OIGG : now visible

Airfield :











YOU CAN JOIN US ON...

 
LOGIN :

Register | Disclaimer

   EN    FR    IT 

 









Legend :    VFR   Marginal VFR   IFR   Intensive IFR   Very Intensive IFR
Visi :
Ceiling :
>= 8 km
>= 3000ft
5 to 8 km
1000 to 3000 ft
1500m to 5 km
500 to 1000 ft
800 to 1500m
200 to 500 ft
< 800m
< 200 ft
Symbols :   Thunderstorms  Fog  Heavy snow  Heavy precipitations  Wind > 20 kt






- Airport Elevation : -40 ft
- IATA code : RAS


OIGG - Rasht

CURRENT METAR :
  • 031330Z 23006KT 3000 -DZ BKN009 FEW012CB OVC060 11/11 Q1028

EXPIRED METARs :
  • 031300Z 24006KT 3000 DZ BKN009 FEW012CB OVC060 11/11 Q1028
  • 031230Z 24006KT 3000 DZ BKN009 FEW012CB OVC060 11/11 Q1027
  • 031200Z 24006KT 4000 BR BKN009 FEW012CB OVC060 12/12 Q1027
  • 031130Z 24006KT 4000 BR BKN009 FEW012CB OVC060 12/12 Q1027
  • 031100Z 24006KT 4000 BR BKN009 FEW012CB OVC060 12/12 Q1027
  • 031030Z 26006KT 2000 -DZ BKN009 FEW012CB OVC060 12/12 Q1027

Expired Forecast.
OIIX FIR / Asia



MET'MAP, your aeronautical weather chart ! - Copyright ORBIFLY December 2007 - Disclaimer

ORBIFLY MET'MAP TEAM :

Programming & Development : Alexandra Zaïnal
Concept & original design : Baudouin d'Aumeries
Assistance for programming : Marc-Olivier Méhu
Technical & hardware support : Manuel Goepfert

Contact : metmap@orbifly.com




SOURCES & CREDITS :

   NOAA       Earth
Advisory